Time;durP1;ratioP1;P1;durP2;ratioP2;P2;SDS_P1;SDS_P2;PMS_P1;PMS_P2;Temp;Humidity;BMP_temperature;BMP_pressure;BME280_temperature;BME280_humidity;BME280_pressure;Samples;Min_cycle;Max_cycle;Signal;HPM_P1;HPM_P2
2022/12/19 00:01:00;;;;;;;1.60;1.50;;;;;;;;;;5047064;28;20175;-79
2022/12/19 00:03:25;;;;;;;1.40;1.30;;;;;;;;;;5046630;28;20228;-79
2022/12/19 00:05:50;;;;;;;2.27;1.87;;;;;;;;;;5043245;28;20449;-79
2022/12/19 00:08:15;;;;;;;1.50;1.40;;;;;;;;;;5032121;28;20175;-79
2022/12/19 00:10:41;;;;;;;1.70;1.60;;;;;;;;;;5043788;28;20285;-79
2022/12/19 00:13:06;;;;;;;1.50;1.37;;;;;;;;;;5041016;28;20189;-79
2022/12/19 00:15:32;;;;;;;1.97;1.77;;;;;;;;;;5049038;28;20183;-79
2022/12/19 00:17:57;;;;;;;1.53;1.43;;;;;;;;;;5038413;28;20207;-79
2022/12/19 00:20:22;;;;;;;1.57;1.47;;;;;;;;;;5044890;28;20178;-79
2022/12/19 00:22:49;;;;;;;1.50;1.40;;;;;;;;;;5042865;28;20194;-79
2022/12/19 00:25:14;;;;;;;1.50;1.40;;;;;;;;;;5048723;28;20174;-79
2022/12/19 00:27:39;;;;;;;1.60;1.50;;;;;;;;;;5045772;28;20174;-79
2022/12/19 00:30:04;;;;;;;2.07;1.50;;;;;;;;;;5044614;28;20245;-79
2022/12/19 00:32:30;;;;;;;1.63;1.53;;;;;;;;;;5040082;28;20163;-79
2022/12/19 00:34:55;;;;;;;1.60;1.50;;;;;;;;;;5045829;28;20229;-79
2022/12/19 00:37:20;;;;;;;2.53;1.57;;;;;;;;;;5045328;28;20201;-79
2022/12/19 00:39:45;;;;;;;1.43;1.33;;;;;;;;;;5055444;28;20182;-79
2022/12/19 00:42:10;;;;;;;1.93;1.73;;;;;;;;;;5045793;28;20289;-79
2022/12/19 00:44:36;;;;;;;1.90;1.40;;;;;;;;;;5046858;28;20170;-79
2022/12/19 00:47:01;;;;;;;1.40;1.30;;;;;;;;;;5051708;28;20178;-79
2022/12/19 00:49:26;;;;;;;1.77;1.40;;;;;;;;;;5041218;28;20174;-79
2022/12/19 00:51:51;;;;;;;1.50;1.40;;;;;;;;;;5045100;28;20227;-79
2022/12/19 00:54:17;;;;;;;1.70;1.60;;;;;;;;;;5042081;28;20332;-79
2022/12/19 00:56:42;;;;;;;1.60;1.37;;;;;;;;;;5049690;28;20178;-80
2022/12/19 00:59:09;;;;;;;2.13;1.70;;;;;;;;;;5047984;28;20240;-80
2022/12/19 01:01:35;;;;;;;1.90;1.60;;;;;;;;;;5051353;28;20277;-80
2022/12/19 01:04:01;;;;;;;1.50;1.40;;;;;;;;;;5048332;28;20284;-80
2022/12/19 01:06:27;;;;;;;2.10;1.80;;;;;;;;;;5064919;28;20393;-80
2022/12/19 01:08:52;;;;;;;2.00;1.60;;;;;;;;;;5048097;28;20233;-80
2022/12/19 01:12:44;;;;;;;1.87;1.70;;;;;;;;;;5047263;28;20185;-80
2022/12/19 01:14:03;;;;;;;2.93;2.10;;;;;;;;;;5048895;28;20208;-80
2022/12/19 01:16:28;;;;;;;2.07;1.67;;;;;;;;;;5049906;28;20189;-80
2022/12/19 01:18:53;;;;;;;3.00;2.00;;;;;;;;;;5048535;28;20193;-80
2022/12/19 01:21:18;;;;;;;2.93;1.87;;;;;;;;;;5050285;28;20224;-79
2022/12/19 01:23:43;;;;;;;1.83;1.70;;;;;;;;;;5047285;28;20198;-80
2022/12/19 01:26:09;;;;;;;2.83;2.00;;;;;;;;;;5046941;28;20174;-80
2022/12/19 01:28:34;;;;;;;2.43;1.77;;;;;;;;;;5048341;28;20175;-80
2022/12/19 01:30:59;;;;;;;1.70;1.60;;;;;;;;;;5051223;28;20182;-80
2022/12/19 01:33:24;;;;;;;2.03;1.70;;;;;;;;;;5049204;28;20186;-80
2022/12/19 01:35:49;;;;;;;2.03;1.70;;;;;;;;;;5043500;28;20253;-80
2022/12/19 01:38:17;;;;;;;1.70;1.47;;;;;;;;;;5038570;28;20206;-80
2022/12/19 01:40:50;;;;;;;4.17;1.67;;;;;;;;;;5045171;28;20214;-80
2022/12/19 01:43:16;;;;;;;3.47;1.63;;;;;;;;;;5047031;28;20292;-79
2022/12/19 01:45:41;;;;;;;1.63;1.50;;;;;;;;;;5049106;28;20185;-79
2022/12/19 01:48:09;;;;;;;1.60;1.50;;;;;;;;;;5044632;28;20170;-79
2022/12/19 01:50:40;;;;;;;1.90;1.63;;;;;;;;;;5046437;28;20285;-79
2022/12/19 01:53:07;;;;;;;1.87;1.67;;;;;;;;;;5050465;28;20181;-78
2022/12/19 01:55:32;;;;;;;2.13;1.83;;;;;;;;;;5047861;28;20213;-78
2022/12/19 01:57:58;;;;;;;2.37;2.03;;;;;;;;;;5047281;28;20217;-79
2022/12/19 02:00:24;;;;;;;1.60;1.37;;;;;;;;;;5035767;28;20213;-79
2022/12/19 02:02:52;;;;;;;2.27;1.40;;;;;;;;;;5045321;28;20202;-79
2022/12/19 02:05:17;;;;;;;2.57;1.70;;;;;;;;;;5045997;28;20209;-79
2022/12/19 02:07:43;;;;;;;1.80;1.47;;;;;;;;;;5050554;28;20202;-79
2022/12/19 02:10:09;;;;;;;2.27;2.07;;;;;;;;;;5048480;28;20182;-79
2022/12/19 02:12:36;;;;;;;2.20;1.80;;;;;;;;;;5045895;28;20197;-79
2022/12/19 02:15:01;;;;;;;2.00;1.83;;;;;;;;;;5044021;28;20174;-79
2022/12/19 02:17:39;;;;;;;1.70;1.60;;;;;;;;;;5045521;28;20209;-79
2022/12/19 02:20:07;;;;;;;2.40;1.53;;;;;;;;;;5039331;28;20186;-79
2022/12/19 02:22:32;;;;;;;1.60;1.50;;;;;;;;;;5045806;28;20198;-79
2022/12/19 02:25:09;;;;;;;1.67;1.40;;;;;;;;;;5043406;28;20252;-79
2022/12/19 02:27:53;;;;;;;1.70;1.43;;;;;;;;;;5048063;28;20237;-79
2022/12/19 02:30:33;;;;;;;1.90;1.50;;;;;;;;;;5047647;28;20174;-79
2022/12/19 02:33:10;;;;;;;1.70;1.60;;;;;;;;;;5041648;28;20189;-79
2022/12/19 02:35:41;;;;;;;2.73;1.70;;;;;;;;;;5030027;28;20242;-79
2022/12/19 02:38:09;;;;;;;1.80;1.37;;;;;;;;;;5010226;28;20277;-79
2022/12/19 02:40:40;;;;;;;1.50;1.40;;;;;;;;;;5009087;28;20190;-79
2022/12/19 02:43:06;;;;;;;1.50;1.40;;;;;;;;;;5008908;28;20206;-79
2022/12/19 02:45:34;;;;;;;1.63;1.30;;;;;;;;;;5022387;28;20189;-79
2022/12/19 02:48:00;;;;;;;2.17;1.53;;;;;;;;;;5028483;28;20190;-79
2022/12/19 02:50:34;;;;;;;2.97;1.73;;;;;;;;;;5008236;28;20211;-79
2022/12/19 02:52:59;;;;;;;1.50;1.40;;;;;;;;;;5006304;28;20191;-79
2022/12/19 02:55:24;;;;;;;2.73;1.90;;;;;;;;;;5008702;28;20205;-79
2022/12/19 02:58:00;;;;;;;1.70;1.57;;;;;;;;;;5007629;28;20179;-79
2022/12/19 03:00:27;;;;;;;1.90;1.57;;;;;;;;;;5022325;28;20174;-79
2022/12/19 03:03:08;;;;;;;2.20;1.87;;;;;;;;;;5007857;28;20236;-79
2022/12/19 03:05:33;;;;;;;2.80;2.20;;;;;;;;;;5023166;28;20250;-79
2022/12/19 03:08:04;;;;;;;2.03;1.47;;;;;;;;;;5005953;28;20282;-79
2022/12/19 03:10:35;;;;;;;2.20;1.70;;;;;;;;;;5026468;28;20183;-79
2022/12/19 03:13:09;;;;;;;4.40;1.90;;;;;;;;;;5006151;28;20229;-79
2022/12/19 03:15:34;;;;;;;2.30;1.63;;;;;;;;;;5024603;28;20267;-79
2022/12/19 03:18:00;;;;;;;2.00;1.80;;;;;;;;;;5009452;28;20377;-79
2022/12/19 03:20:44;;;;;;;1.80;1.70;;;;;;;;;;5008234;28;20298;-78
2022/12/19 03:23:10;;;;;;;2.70;1.57;;;;;;;;;;5007989;28;20210;-78
2022/12/19 03:25:35;;;;;;;2.33;1.97;;;;;;;;;;5023870;28;20178;-79
2022/12/19 03:28:03;;;;;;;1.60;1.50;;;;;;;;;;5026986;28;20232;-79
2022/12/19 03:30:30;;;;;;;2.20;1.93;;;;;;;;;;5009914;28;20198;-79
2022/12/19 03:32:55;;;;;;;2.43;1.67;;;;;;;;;;5012855;28;20480;-79
2022/12/19 03:35:23;;;;;;;2.73;1.80;;;;;;;;;;5031967;28;20221;-78
2022/12/19 03:37:49;;;;;;;2.57;1.93;;;;;;;;;;5048029;28;20178;-79
2022/12/19 03:40:17;;;;;;;2.70;1.77;;;;;;;;;;5044996;28;20231;-78
2022/12/19 03:45:41;;;;;;;2.37;2.17;;;;;;;;;;5048512;28;20200;-78
2022/12/19 03:48:08;;;;;;;2.20;2.00;;;;;;;;;;5040435;28;20181;-78
2022/12/19 03:50:58;;;;;;;2.37;2.07;;;;;;;;;;5041047;28;20246;-78
2022/12/19 03:53:35;;;;;;;2.93;2.10;;;;;;;;;;5052158;28;20236;-78
2022/12/19 03:56:24;;;;;;;1.90;1.70;;;;;;;;;;5042131;28;20469;-78
2022/12/19 03:58:54;;;;;;;2.53;2.30;;;;;;;;;;5033989;28;20280;-78
2022/12/19 04:01:20;;;;;;;2.20;2.00;;;;;;;;;;5038856;28;20219;-78
2022/12/19 04:03:45;;;;;;;2.50;2.20;;;;;;;;;;5043531;28;20273;-78
2022/12/19 04:06:12;;;;;;;2.80;2.43;;;;;;;;;;5043028;28;20309;-78
2022/12/19 04:08:38;;;;;;;5.23;3.03;;;;;;;;;;5046487;28;20178;-78
2022/12/19 04:11:09;;;;;;;4.20;2.53;;;;;;;;;;5045942;28;20188;-78
2022/12/19 04:13:37;;;;;;;3.33;2.53;;;;;;;;;;5045708;28;20186;-78
2022/12/19 04:16:06;;;;;;;3.90;3.00;;;;;;;;;;5047772;28;20197;-78
2022/12/19 04:18:32;;;;;;;3.47;2.80;;;;;;;;;;5047383;28;20201;-78
2022/12/19 04:21:00;;;;;;;4.70;2.80;;;;;;;;;;5051306;28;20201;-78
2022/12/19 04:23:38;;;;;;;3.47;2.70;;;;;;;;;;5046866;28;20202;-78
2022/12/19 04:26:04;;;;;;;3.97;2.97;;;;;;;;;;5048321;28;20179;-78
2022/12/19 04:28:38;;;;;;;3.13;2.77;;;;;;;;;;5043284;28;20185;-78
2022/12/19 04:31:04;;;;;;;3.87;2.80;;;;;;;;;;5048961;28;20204;-78
2022/12/19 04:33:29;;;;;;;3.03;2.73;;;;;;;;;;5051087;28;20182;-78
2022/12/19 04:35:55;;;;;;;6.33;3.03;;;;;;;;;;5048987;28;20232;-78
2022/12/19 04:38:20;;;;;;;4.03;3.47;;;;;;;;;;5041731;28;20185;-78
2022/12/19 04:40:45;;;;;;;4.83;3.50;;;;;;;;;;5043615;28;20182;-78
2022/12/19 04:43:10;;;;;;;7.27;3.03;;;;;;;;;;5052331;28;20194;-78
2022/12/19 04:45:36;;;;;;;4.03;3.43;;;;;;;;;;5044503;28;20261;-78
2022/12/19 04:48:01;;;;;;;4.20;3.50;;;;;;;;;;5048410;28;20185;-78
2022/12/19 04:50:26;;;;;;;5.17;3.50;;;;;;;;;;5051995;28;20175;-78
2022/12/19 04:52:51;;;;;;;4.07;3.20;;;;;;;;;;5047858;28;20240;-78
2022/12/19 04:55:16;;;;;;;6.10;3.60;;;;;;;;;;5048464;28;20180;-78
2022/12/19 04:57:42;;;;;;;5.30;3.53;;;;;;;;;;5048903;28;20189;-78
2022/12/19 05:00:07;;;;;;;8.90;4.07;;;;;;;;;;5050697;28;20189;-78
2022/12/19 05:02:33;;;;;;;4.87;3.53;;;;;;;;;;5047560;28;20197;-78
2022/12/19 05:04:59;;;;;;;5.33;4.17;;;;;;;;;;5054472;28;20177;-78
2022/12/19 05:07:24;;;;;;;4.17;3.77;;;;;;;;;;5052870;28;20184;-78
2022/12/19 05:09:49;;;;;;;4.50;3.40;;;;;;;;;;5050623;28;20181;-78
2022/12/19 05:12:14;;;;;;;6.43;3.77;;;;;;;;;;5047834;28;20182;-78
2022/12/19 05:14:40;;;;;;;4.87;4.00;;;;;;;;;;5045658;28;20166;-78
2022/12/19 05:17:05;;;;;;;6.90;4.27;;;;;;;;;;5049664;28;20178;-78
2022/12/19 05:19:30;;;;;;;5.20;4.30;;;;;;;;;;5049171;28;20166;-78
2022/12/19 05:21:55;;;;;;;7.93;4.70;;;;;;;;;;5047854;28;20166;-77
2022/12/19 05:24:21;;;;;;;6.63;4.73;;;;;;;;;;5043207;28;20343;-77
2022/12/19 05:26:47;;;;;;;8.90;6.97;;;;;;;;;;5040148;28;20436;-77
2022/12/19 05:29:12;;;;;;;7.53;5.43;;;;;;;;;;5049036;28;20264;-78
2022/12/19 05:31:37;;;;;;;6.63;5.17;;;;;;;;;;5044734;28;20238;-78
2022/12/19 05:34:02;;;;;;;4.90;3.90;;;;;;;;;;5047364;28;20277;-78
2022/12/19 05:36:28;;;;;;;6.23;4.00;;;;;;;;;;5028280;28;20261;-78
2022/12/19 05:38:53;;;;;;;7.10;4.30;;;;;;;;;;5010671;28;20206;-78
2022/12/19 05:41:19;;;;;;;5.93;4.30;;;;;;;;;;5010559;28;20213;-78
2022/12/19 05:43:45;;;;;;;5.07;4.47;;;;;;;;;;5012379;28;20272;-78
2022/12/19 05:46:10;;;;;;;5.40;4.00;;;;;;;;;;5012568;28;20175;-78
2022/12/19 05:48:36;;;;;;;6.60;4.40;;;;;;;;;;5014668;28;20166;-78
2022/12/19 05:51:01;;;;;;;6.33;4.87;;;;;;;;;;5008681;28;20229;-78
2022/12/19 05:53:27;;;;;;;6.60;4.70;;;;;;;;;;5024055;28;20209;-78
2022/12/19 05:56:01;;;;;;;6.40;4.97;;;;;;;;;;5011184;28;20179;-78
2022/12/19 05:58:26;;;;;;;8.20;5.20;;;;;;;;;;5012054;28;20173;-78
2022/12/19 06:00:52;;;;;;;7.97;6.07;;;;;;;;;;5013440;28;20190;-78
2022/12/19 06:03:17;;;;;;;9.60;6.97;;;;;;;;;;5018935;28;20221;-78
2022/12/19 06:05:42;;;;;;;7.30;5.57;;;;;;;;;;5026498;28;20257;-78
2022/12/19 06:08:07;;;;;;;15.43;14.10;;;;;;;;;;5006787;28;20230;-85
2022/12/19 06:10:33;;;;;;;9.77;5.97;;;;;;;;;;5012951;28;20187;-88
2022/12/19 06:12:58;;;;;;;11.97;8.20;;;;;;;;;;5009932;28;20186;-86
2022/12/19 06:15:23;;;;;;;8.13;5.33;;;;;;;;;;5009178;28;20248;-87
2022/12/19 06:17:51;;;;;;;13.57;10.00;;;;;;;;;;5003995;28;20195;-87
2022/12/19 06:20:17;;;;;;;12.40;7.67;;;;;;;;;;5030012;28;20174;-87
2022/12/19 06:22:42;;;;;;;13.00;8.20;;;;;;;;;;5008228;28;20191;-87
2022/12/19 06:25:08;;;;;;;14.33;7.63;;;;;;;;;;5015473;28;20186;-87
2022/12/19 06:27:33;;;;;;;14.93;8.93;;;;;;;;;;5012305;28;20179;-87
2022/12/19 06:29:58;;;;;;;17.87;10.37;;;;;;;;;;5017236;28;20183;-85
2022/12/19 06:32:24;;;;;;;18.40;11.43;;;;;;;;;;5010303;28;20182;-87
2022/12/19 06:34:49;;;;;;;18.67;11.83;;;;;;;;;;5026307;28;20233;-85
2022/12/19 06:37:14;;;;;;;20.90;10.77;;;;;;;;;;5045731;28;20221;-85
2022/12/19 06:39:39;;;;;;;20.13;13.33;;;;;;;;;;5050863;28;20178;-86
2022/12/19 06:42:23;;;;;;;12.60;8.60;;;;;;;;;;5050269;28;20184;-86
2022/12/19 06:44:52;;;;;;;13.00;8.10;;;;;;;;;;5040796;28;20186;-87
2022/12/19 06:47:17;;;;;;;14.03;8.13;;;;;;;;;;5045187;28;20174;-85
2022/12/19 06:49:46;;;;;;;14.27;10.40;;;;;;;;;;5043678;28;20174;-86
2022/12/19 06:52:11;;;;;;;17.73;9.57;;;;;;;;;;5050703;28;20178;-86
2022/12/19 06:54:36;;;;;;;17.10;11.00;;;;;;;;;;5043162;28;20170;-86
2022/12/19 06:57:01;;;;;;;21.27;12.67;;;;;;;;;;5040284;28;20182;-85
2022/12/19 06:59:27;;;;;;;21.67;12.47;;;;;;;;;;5044010;28;20197;-85
2022/12/19 07:01:56;;;;;;;18.07;9.93;;;;;;;;;;5043857;28;20175;-85
2022/12/19 07:04:45;;;;;;;15.17;8.90;;;;;;;;;;5044935;28;20291;-84
2022/12/19 07:07:10;;;;;;;24.27;11.30;;;;;;;;;;5039318;28;20284;-84
2022/12/19 07:09:35;;;;;;;20.20;11.67;;;;;;;;;;5041945;28;20258;-84
2022/12/19 07:12:01;;;;;;;22.33;12.43;;;;;;;;;;5038536;28;20220;-84
2022/12/19 07:14:26;;;;;;;24.13;12.17;;;;;;;;;;5042816;28;20179;-84
2022/12/19 07:16:52;;;;;;;21.80;12.57;;;;;;;;;;5044635;28;20265;-84
2022/12/19 07:19:18;;;;;;;24.20;15.87;;;;;;;;;;5048659;28;20186;-84
2022/12/19 07:21:44;;;;;;;19.17;11.80;;;;;;;;;;5045204;28;20185;-84
2022/12/19 07:24:10;;;;;;;17.17;9.90;;;;;;;;;;5045106;28;20213;-84
2022/12/19 07:26:35;;;;;;;13.83;9.37;;;;;;;;;;5062123;28;20192;-84
2022/12/19 07:29:00;;;;;;;16.97;10.33;;;;;;;;;;5045860;28;20182;-84
2022/12/19 07:31:26;;;;;;;17.37;10.30;;;;;;;;;;5044904;28;20178;-84
2022/12/19 07:33:51;;;;;;;20.47;11.67;;;;;;;;;;5037388;28;20186;-84
2022/12/19 07:36:16;;;;;;;19.63;11.43;;;;;;;;;;5010299;28;20237;-84
2022/12/19 07:38:41;;;;;;;19.67;11.90;;;;;;;;;;5009366;28;20266;-83
2022/12/19 07:41:06;;;;;;;21.30;11.43;;;;;;;;;;5009189;28;20240;-83
2022/12/19 07:43:32;;;;;;;21.30;11.87;;;;;;;;;;5011023;28;20210;-83
2022/12/19 07:45:57;;;;;;;22.57;11.40;;;;;;;;;;5012020;28;20205;-83
2022/12/19 07:48:22;;;;;;;21.17;12.30;;;;;;;;;;5004745;28;20273;-83
2022/12/19 07:50:48;;;;;;;24.07;11.17;;;;;;;;;;5026182;28;20262;-83
2022/12/19 07:53:14;;;;;;;19.37;11.00;;;;;;;;;;5002074;28;20179;-83
2022/12/19 07:55:39;;;;;;;20.53;10.63;;;;;;;;;;5009682;28;20174;-83
2022/12/19 07:58:04;;;;;;;20.73;11.07;;;;;;;;;;5012199;28;20221;-82
2022/12/19 08:00:30;;;;;;;20.93;10.33;;;;;;;;;;5009849;28;20217;-83
2022/12/19 08:02:57;;;;;;;19.07;10.03;;;;;;;;;;5009764;28;20230;-82
2022/12/19 08:05:22;;;;;;;19.73;11.03;;;;;;;;;;5012167;28;20181;-83
2022/12/19 08:07:48;;;;;;;17.23;10.43;;;;;;;;;;5010062;28;20187;-83
2022/12/19 08:10:14;;;;;;;18.50;9.23;;;;;;;;;;5008158;28;20197;-83
2022/12/19 08:12:39;;;;;;;17.87;10.23;;;;;;;;;;5009436;28;20236;-83
2022/12/19 08:15:05;;;;;;;20.63;10.40;;;;;;;;;;5010722;28;20183;-86
2022/12/19 08:17:30;;;;;;;15.63;8.20;;;;;;;;;;5027537;28;20195;-84
2022/12/19 08:19:56;;;;;;;17.17;8.10;;;;;;;;;;5014387;28;20179;-84
2022/12/19 08:22:22;;;;;;;14.93;8.27;;;;;;;;;;5009805;28;20187;-84
2022/12/19 08:24:47;;;;;;;15.67;8.37;;;;;;;;;;5013818;28;20178;-84
2022/12/19 08:27:14;;;;;;;14.33;8.23;;;;;;;;;;5010723;28;20442;-85
2022/12/19 08:29:39;;;;;;;14.77;8.00;;;;;;;;;;5010489;28;20262;-84
2022/12/19 08:32:04;;;;;;;14.43;7.00;;;;;;;;;;5011464;28;20278;-84
2022/12/19 08:34:30;;;;;;;17.47;8.80;;;;;;;;;;5015761;28;20310;-83
2022/12/19 08:36:55;;;;;;;13.90;8.40;;;;;;;;;;5040171;28;20179;-85
2022/12/19 08:39:20;;;;;;;17.63;9.20;;;;;;;;;;5047741;28;20186;-84
2022/12/19 08:41:46;;;;;;;14.97;8.90;;;;;;;;;;5050330;28;20248;-84
2022/12/19 08:44:12;;;;;;;15.97;10.17;;;;;;;;;;5048835;28;20319;-85
2022/12/19 08:46:37;;;;;;;20.83;11.63;;;;;;;;;;5047009;28;20186;-85
2022/12/19 08:49:02;;;;;;;17.90;11.20;;;;;;;;;;5047883;28;20174;-84
2022/12/19 08:51:27;;;;;;;19.70;10.43;;;;;;;;;;5049909;28;20177;-84
2022/12/19 08:53:53;;;;;;;13.93;9.67;;;;;;;;;;5048180;28;20178;-85
2022/12/19 08:56:19;;;;;;;14.87;8.83;;;;;;;;;;5052521;28;20178;-84
2022/12/19 08:58:45;;;;;;;15.40;8.90;;;;;;;;;;5050786;28;20174;-86
2022/12/19 09:01:12;;;;;;;16.20;8.57;;;;;;;;;;5045159;28;20282;-84
2022/12/19 09:03:38;;;;;;;19.10;9.13;;;;;;;;;;5051321;28;20259;-85
2022/12/19 09:06:04;;;;;;;12.07;7.63;;;;;;;;;;5050807;28;20178;-85
2022/12/19 09:08:30;;;;;;;13.77;8.20;;;;;;;;;;5040565;28;20178;-85
2022/12/19 09:10:59;;;;;;;16.37;8.17;;;;;;;;;;5047921;28;20179;-84
2022/12/19 09:13:24;;;;;;;14.63;8.97;;;;;;;;;;5048287;28;20182;-85
2022/12/19 09:15:57;;;;;;;22.80;11.37;;;;;;;;;;5050287;28;20186;-84
2022/12/19 09:18:22;;;;;;;39.60;17.63;;;;;;;;;;5052544;28;20225;-84
2022/12/19 09:20:51;;;;;;;18.67;9.57;;;;;;;;;;5051876;28;20263;-86
2022/12/19 09:23:17;;;;;;;20.37;11.63;;;;;;;;;;5046638;28;20186;-85
2022/12/19 09:25:42;;;;;;;19.60;11.07;;;;;;;;;;5050429;28;20268;-84
2022/12/19 09:28:07;;;;;;;20.97;11.40;;;;;;;;;;5048178;28;20265;-83
2022/12/19 09:30:32;;;;;;;21.10;12.53;;;;;;;;;;5048405;28;20178;-84
2022/12/19 09:32:57;;;;;;;23.10;12.20;;;;;;;;;;5047536;28;20184;-83
2022/12/19 09:35:23;;;;;;;22.83;11.80;;;;;;;;;;5048242;28;20249;-83
2022/12/19 09:37:48;;;;;;;18.27;10.70;;;;;;;;;;5044448;28;20230;-84
2022/12/19 09:40:15;;;;;;;18.47;10.37;;;;;;;;;;5055765;28;20205;-83
2022/12/19 09:42:40;;;;;;;19.27;11.23;;;;;;;;;;5047190;28;20214;-83
2022/12/19 09:45:08;;;;;;;20.80;11.23;;;;;;;;;;5050677;28;20574;-82
2022/12/19 09:47:36;;;;;;;20.23;15.00;;;;;;;;;;5047987;28;20181;-83
2022/12/19 09:50:05;;;;;;;18.70;10.77;;;;;;;;;;5049470;28;20174;-83
2022/12/19 09:52:39;;;;;;;19.50;11.33;;;;;;;;;;5042536;28;20245;-83
2022/12/19 09:55:13;;;;;;;21.67;11.73;;;;;;;;;;5051431;28;20260;-83
2022/12/19 09:57:48;;;;;;;21.33;12.03;;;;;;;;;;5041557;28;20194;-83
2022/12/19 10:00:16;;;;;;;17.90;11.50;;;;;;;;;;5044224;28;20181;-83
2022/12/19 10:02:47;;;;;;;19.73;11.30;;;;;;;;;;5042961;28;20207;-83
2022/12/19 10:05:18;;;;;;;20.20;12.20;;;;;;;;;;5043416;28;20251;-83
2022/12/19 10:07:44;;;;;;;21.10;12.37;;;;;;;;;;5049795;28;20200;-83
2022/12/19 10:10:14;;;;;;;20.60;12.60;;;;;;;;;;5051933;28;20201;-83
2022/12/19 10:12:39;;;;;;;20.50;12.03;;;;;;;;;;5044292;28;20178;-83
2022/12/19 10:15:08;;;;;;;17.40;11.70;;;;;;;;;;5049102;28;20201;-83
2022/12/19 10:17:46;;;;;;;22.70;13.37;;;;;;;;;;5040188;28;20201;-83
2022/12/19 10:20:28;;;;;;;20.67;11.17;;;;;;;;;;5048873;28;20199;-83
2022/12/19 10:22:59;;;;;;;17.90;10.53;;;;;;;;;;5034738;28;20228;-83
2022/12/19 10:25:46;;;;;;;14.83;9.37;;;;;;;;;;5055831;28;20181;-83
2022/12/19 10:28:11;;;;;;;16.10;9.87;;;;;;;;;;5048750;28;20173;-82
2022/12/19 10:30:42;;;;;;;12.30;9.73;;;;;;;;;;5045855;28;20171;-82
2022/12/19 10:33:31;;;;;;;14.37;8.90;;;;;;;;;;5046882;28;20208;-82
2022/12/19 10:35:57;;;;;;;16.50;9.93;;;;;;;;;;5043837;28;20217;-82
2022/12/19 10:38:25;;;;;;;12.90;9.13;;;;;;;;;;5047196;28;20276;-82
2022/12/19 10:40:54;;;;;;;15.87;10.07;;;;;;;;;;5046149;28;20174;-82
2022/12/19 10:43:29;;;;;;;12.40;8.90;;;;;;;;;;5048167;28;20202;-82
2022/12/19 10:45:58;;;;;;;10.27;7.40;;;;;;;;;;5040583;28;20169;-82
2022/12/19 10:48:23;;;;;;;10.50;7.27;;;;;;;;;;5043699;28;20182;-82
2022/12/19 10:50:49;;;;;;;13.60;8.13;;;;;;;;;;5045764;28;20170;-82
2022/12/19 10:53:15;;;;;;;11.67;7.83;;;;;;;;;;5046662;28;20189;-82
2022/12/19 10:55:43;;;;;;;14.53;9.70;;;;;;;;;;5045700;28;20203;-82
2022/12/19 10:58:20;;;;;;;14.37;9.90;;;;;;;;;;5062149;28;20190;-82
2022/12/19 11:00:56;;;;;;;13.67;9.00;;;;;;;;;;5043347;28;20178;-82
2022/12/19 11:03:21;;;;;;;15.13;9.90;;;;;;;;;;5047318;28;20284;-81
2022/12/19 11:05:49;;;;;;;15.07;9.30;;;;;;;;;;5044263;28;20274;-81
2022/12/19 11:08:16;;;;;;;10.47;8.07;;;;;;;;;;5048553;28;20174;-81
2022/12/19 11:10:43;;;;;;;16.13;8.53;;;;;;;;;;5049892;28;20170;-81
2022/12/19 11:13:22;;;;;;;11.33;7.77;;;;;;;;;;5043190;28;20174;-81
2022/12/19 11:15:48;;;;;;;13.40;8.13;;;;;;;;;;5049182;28;20220;-81
2022/12/19 11:18:15;;;;;;;10.57;7.43;;;;;;;;;;5049175;28;20198;-81
2022/12/19 11:20:52;;;;;;;13.80;8.60;;;;;;;;;;5043858;28;20167;-81
2022/12/19 11:23:17;;;;;;;9.90;6.87;;;;;;;;;;5045136;28;20239;-82
2022/12/19 11:25:42;;;;;;;11.43;6.80;;;;;;;;;;5063818;28;20402;-81
2022/12/19 11:28:10;;;;;;;12.50;6.93;;;;;;;;;;5046073;28;20202;-81
2022/12/19 11:30:35;;;;;;;14.27;9.87;;;;;;;;;;5045167;28;20174;-81
2022/12/19 11:33:10;;;;;;;18.50;11.30;;;;;;;;;;5042149;28;20246;-82
2022/12/19 11:35:44;;;;;;;15.47;13.27;;;;;;;;;;5039349;28;20226;-82
2022/12/19 11:38:12;;;;;;;14.97;9.97;;;;;;;;;;5052584;28;20186;-82
2022/12/19 11:40:37;;;;;;;13.40;9.43;;;;;;;;;;5041239;28;20234;-81
2022/12/19 11:43:02;;;;;;;23.07;17.10;;;;;;;;;;5045338;28;20199;-81
2022/12/19 11:45:34;;;;;;;19.07;13.77;;;;;;;;;;5045369;28;20174;-81
2022/12/19 11:48:08;;;;;;;24.73;18.23;;;;;;;;;;5048746;28;20185;-81
2022/12/19 11:50:37;;;;;;;15.47;10.73;;;;;;;;;;5045521;28;20178;-81
2022/12/19 11:53:03;;;;;;;22.23;16.33;;;;;;;;;;5038463;28;20202;-81
2022/12/19 11:55:38;;;;;;;23.47;15.97;;;;;;;;;;5037018;28;20182;-82
2022/12/19 11:58:03;;;;;;;34.27;22.93;;;;;;;;;;5047565;28;20178;-82
2022/12/19 12:00:29;;;;;;;21.80;13.57;;;;;;;;;;5041910;28;20280;-82
2022/12/19 12:03:05;;;;;;;24.70;15.73;;;;;;;;;;5048689;28;20249;-82
2022/12/19 12:05:40;;;;;;;31.43;20.50;;;;;;;;;;5043357;28;20406;-81
2022/12/19 12:08:24;;;;;;;31.27;20.10;;;;;;;;;;5036489;28;20257;-82
2022/12/19 12:11:00;;;;;;;28.87;18.53;;;;;;;;;;5037590;28;20179;-81
2022/12/19 12:13:25;;;;;;;16.30;12.60;;;;;;;;;;5051334;28;20185;-81
2022/12/19 12:15:59;;;;;;;17.27;11.97;;;;;;;;;;5040918;28;20205;-81
2022/12/19 12:18:34;;;;;;;17.67;13.50;;;;;;;;;;5043648;28;20231;-81
2022/12/19 12:21:06;;;;;;;15.40;10.53;;;;;;;;;;5040727;28;20232;-81
2022/12/19 12:23:50;;;;;;;17.57;13.60;;;;;;;;;;5041662;28;20205;-81
2022/12/19 12:26:31;;;;;;;15.23;9.10;;;;;;;;;;5046904;28;20181;-81
2022/12/19 12:29:06;;;;;;;10.83;7.63;;;;;;;;;;5045582;28;20177;-82
2022/12/19 12:31:35;;;;;;;11.73;8.07;;;;;;;;;;5053342;28;20177;-81
2022/12/19 12:34:27;;;;;;;17.13;12.73;;;;;;;;;;5050285;28;20178;-81
2022/12/19 12:37:11;;;;;;;23.50;18.20;;;;;;;;;;5031687;28;20182;-81
2022/12/19 12:40:00;;;;;;;19.07;14.50;;;;;;;;;;5009455;28;20176;-81
2022/12/19 12:42:58;;;;;;;21.73;17.00;;;;;;;;;;5006775;28;21553;-81
2022/12/19 12:45:33;;;;;;;19.80;11.97;;;;;;;;;;4998654;28;20254;-81
2022/12/19 12:47:59;;;;;;;19.53;13.13;;;;;;;;;;5011005;28;20175;-81
2022/12/19 12:50:24;;;;;;;22.63;14.90;;;;;;;;;;5012394;28;20190;-81
2022/12/19 12:52:55;;;;;;;23.50;14.57;;;;;;;;;;5010107;28;20181;-81
2022/12/19 12:55:23;;;;;;;28.77;15.23;;;;;;;;;;5011754;28;20194;-81
2022/12/19 12:57:49;;;;;;;23.10;15.40;;;;;;;;;;5008383;28;20176;-81
2022/12/19 13:00:28;;;;;;;37.03;21.63;;;;;;;;;;5013580;28;20533;-81
2022/12/19 13:03:04;;;;;;;28.10;19.33;;;;;;;;;;5010038;28;20297;-81
2022/12/19 13:05:39;;;;;;;20.03;11.87;;;;;;;;;;5015754;28;20175;-81
2022/12/19 13:08:23;;;;;;;18.60;12.00;;;;;;;;;;5015236;28;20201;-81
2022/12/19 13:10:59;;;;;;;14.80;10.23;;;;;;;;;;5028511;28;20186;-81
2022/12/19 13:13:43;;;;;;;14.33;10.60;;;;;;;;;;5013892;28;20186;-81
2022/12/19 13:16:35;;;;;;;11.23;9.10;;;;;;;;;;5007054;28;20186;-81
2022/12/19 13:19:13;;;;;;;13.57;9.17;;;;;;;;;;4973393;28;20238;-81
2022/12/19 13:21:57;;;;;;;10.50;7.53;;;;;;;;;;5030100;28;20180;-81
2022/12/19 13:24:22;;;;;;;14.87;11.67;;;;;;;;;;5006675;28;20285;-81
2022/12/19 13:26:49;;;;;;;13.03;8.67;;;;;;;;;;5005069;28;20263;-81
2022/12/19 13:29:32;;;;;;;14.17;9.10;;;;;;;;;;5013298;28;20274;-82
2022/12/19 13:32:08;;;;;;;10.33;8.20;;;;;;;;;;5008506;28;20176;-81
2022/12/19 13:34:35;;;;;;;13.23;10.10;;;;;;;;;;5019631;28;20251;-82
2022/12/19 13:37:20;;;;;;;12.00;8.80;;;;;;;;;;5049628;28;20198;-81
2022/12/19 13:39:57;;;;;;;14.27;10.77;;;;;;;;;;5005225;28;20231;-82
2022/12/19 13:45:24;;;;;;;11.53;9.20;;;;;;;;;;5048653;28;20198;-82
2022/12/19 13:47:52;;;;;;;19.40;14.03;;;;;;;;;;5067962;28;20174;-82
2022/12/19 13:50:36;;;;;;;22.03;15.13;;;;;;;;;;5043905;28;20243;-82
2022/12/19 13:53:07;;;;;;;15.53;10.13;;;;;;;;;;5047790;28;20202;-82
2022/12/19 13:55:33;;;;;;;12.23;8.43;;;;;;;;;;5039579;28;20188;-81
2022/12/19 13:58:02;;;;;;;10.70;7.10;;;;;;;;;;5044971;28;20179;-82
2022/12/19 14:00:34;;;;;;;7.77;6.40;;;;;;;;;;5043494;28;20182;-81
2022/12/19 14:02:59;;;;;;;7.40;5.87;;;;;;;;;;5040609;28;20215;-82
2022/12/19 14:05:38;;;;;;;7.73;5.30;;;;;;;;;;5045088;28;20228;-82
2022/12/19 14:08:05;;;;;;;7.83;5.33;;;;;;;;;;5055385;28;20181;-82
2022/12/19 14:10:32;;;;;;;7.00;5.13;;;;;;;;;;5050312;28;20219;-82
2022/12/19 14:15:46;;;;;;;8.13;6.00;;;;;;;;;;5044637;28;20186;-82
2022/12/19 14:18:14;;;;;;;5.57;4.90;;;;;;;;;;5043642;28;20197;-81
2022/12/19 14:20:39;;;;;;;7.20;5.23;;;;;;;;;;5047347;28;20276;-85
2022/12/19 14:23:05;;;;;;;6.87;4.93;;;;;;;;;;5043164;28;20207;-78
2022/12/19 14:25:42;;;;;;;7.00;5.67;;;;;;;;;;5045954;28;20190;-77
2022/12/19 14:28:11;;;;;;;6.83;5.97;;;;;;;;;;5062815;28;20192;-78
2022/12/19 14:30:37;;;;;;;7.73;5.87;;;;;;;;;;5047366;28;20201;-77
2022/12/19 14:33:25;;;;;;;7.33;5.53;;;;;;;;;;5050265;28;20182;-78
2022/12/19 14:35:52;;;;;;;7.43;5.67;;;;;;;;;;5047024;28;20226;-77
2022/12/19 14:38:19;;;;;;;9.40;5.83;;;;;;;;;;5044191;28;20183;-77
2022/12/19 14:40:45;;;;;;;8.23;5.00;;;;;;;;;;5048573;28;20214;-78
2022/12/19 14:46:33;;;;;;;5.53;4.93;;;;;;;;;;5049949;28;20263;-78
2022/12/19 14:48:58;;;;;;;5.33;4.83;;;;;;;;;;5010253;28;20192;-78
2022/12/19 14:51:34;;;;;;;6.07;5.13;;;;;;;;;;5060067;28;20209;-78